Observation data for Northwest Lubbock on 02/22/2019      Previous  Date  Next       Current Mesonet Observations  Soil Data  Daily Summary Page  Observations in Plain Language
KLBW 220600Z 13012G17KT 04/M05 A2987 RMK A01 T00421048  RH  052%=      5-min Rain = 0
KLBW 220605Z 12011G17KT 04/M05 A2987 RMK A01 T00411047  RH  053%=      5-min Rain = 0
KLBW 220610Z 12011KT 04/M05 A2987 RMK A01 T00411045  RH  054%=      5-min Rain = 0
KLBW 220615Z 12010G16KT 04/M04 A2987 RMK A01 T00401044  RH  054%=      5-min Rain = 0
KLBW 220620Z 13012G17KT 04/M04 A2987 RMK A01 T00401042  RH  055%=      5-min Rain = 0
KLBW 220625Z 13011G16KT 04/M04 A2987 RMK A01 T00401041  RH  056%=      5-min Rain = 0
KLBW 220630Z 12011G16KT 04/M04 A2987 RMK A01 T00391039  RH  057%=      5-min Rain = 0
KLBW 220635Z 12010G17KT 04/M04 A2987 RMK A01 T00381038  RH  058%=      5-min Rain = 0
KLBW 220640Z 12012G19KT 04/M04 A2987 RMK A01 T00381036  RH  059%=      5-min Rain = 0
KLBW 220645Z 12011KT 04/M04 A2986 RMK A01 T00371035  RH  059%=      5-min Rain = 0
KLBW 220650Z 13011G16KT 04/M04 A2987 RMK A01 T00371035  RH  060%=      5-min Rain = 0
KLBW 220655Z 12011G16KT 04/M03 A2987 RMK A01 T00361034  RH  061%=      5-min Rain = 0
KLBW 220700Z 12011G18KT 04/M03 A2987 RMK A01 T00361033  RH  061%=      5-min Rain = 0
KLBW 220705Z 12011G19KT 04/M03 A2986 RMK A01 T00351033  RH  061%=      5-min Rain = 0
KLBW 220710Z 12011G17KT 03/M03 A2986 RMK A01 T00341033  RH  062%=      5-min Rain = 0
KLBW 220715Z 12012G18KT 03/M03 A2986 RMK A01 T00341031  RH  063%=      5-min Rain = 0
KLBW 220720Z 12010G17KT 03/M03 A2986 RMK A01 T00341029  RH  063%=      5-min Rain = 0
KLBW 220725Z 13011G16KT 03/M03 A2986 RMK A01 T00341027  RH  065%=      5-min Rain = 0
KLBW 220730Z 12009KT 03/M03 A2987 RMK A01 T00341026  RH  065%=      5-min Rain = 0
KLBW 220735Z 12008G13KT 03/M03 A2987 RMK A01 T00331025  RH  066%=      5-min Rain = 0
KLBW 220740Z 12009KT 03/M02 A2987 RMK A01 T00321024  RH  067%=      5-min Rain = 0
KLBW 220745Z 12011G16KT 03/M02 A2988 RMK A01 T00311023  RH  068%=      5-min Rain = 0
KLBW 220750Z 12011KT 03/M02 A2987 RMK A01 T00301022  RH  069%=      5-min Rain = 0
KLBW 220755Z 12009G14KT 03/M02 A2988 RMK A01 T00291021  RH  070%=      5-min Rain = 0
KLBW 220800Z 12010G17KT 03/M02 A2988 RMK A01 T00291020  RH  071%=      5-min Rain = 0
KLBW 220805Z 12009G15KT 03/M02 A2988 RMK A01 T00281019  RH  072%=      5-min Rain = 0
KLBW 220810Z 12010KT 03/M02 A2988 RMK A01 T00271019  RH  073%=      5-min Rain = 0
KLBW 220815Z 12008G13KT 03/M02 A2989 RMK A01 T00261018  RH  073%=      5-min Rain = 0
KLBW 220820Z 12008KT 03/M02 A2989 RMK A01 T00251017  RH  074%=      5-min Rain = 0
KLBW 220825Z 12008KT 03/M02 A2989 RMK A01 T00251015  RH  076%=      5-min Rain = 0
KLBW 220830Z 12010KT 03/M01 A2989 RMK A01 T00251014  RH  077%=      5-min Rain = 0
KLBW 220835Z 12010KT 02/M01 A2989 RMK A01 T00241012  RH  077%=      5-min Rain = 0
KLBW 220840Z 12008G13KT 02/M01 A2989 RMK A01 T00241012  RH  078%=      5-min Rain = 0
KLBW 220845Z 12007KT 02/M01 A2989 RMK A01 T00231011  RH  079%=      5-min Rain = 0
KLBW 220850Z 11008KT 02/M01 A2988 RMK A01 T00231009  RH  080%=      5-min Rain = 0
KLBW 220855Z 11006KT 02/M01 A2988 RMK A01 T00231009  RH  080%=      5-min Rain = 0
KLBW 220900Z 10006KT 02/M01 A2988 RMK A01 T00211009  RH  081%=      5-min Rain = 0
KLBW 220905Z 09007KT 02/M01 A2988 RMK A01 T00201008  RH  082%=      5-min Rain = 0
KLBW 220910Z 10006KT 02/M01 A2989 RMK A01 T00191008  RH  083%=      5-min Rain = 0
KLBW 220915Z 09006KT 02/M01 A2989 RMK A01 T00181008  RH  084%=      5-min Rain = 0
KLBW 220920Z 09006KT 02/M01 A2989 RMK A01 T00151010  RH  085%=      5-min Rain = 0
KLBW 220925Z 10005KT 01/M01 A2989 RMK A01 T00141009  RH  086%=      5-min Rain = 0
KLBW 220930Z 10005KT 01/M01 A2989 RMK A01 T00141007  RH  087%=      5-min Rain = 0
KLBW 220935Z 10005KT 01/M01 A2989 RMK A01 T00141006  RH  087%=      5-min Rain = 0
KLBW 220940Z 09005KT 01/M01 A2989 RMK A01 T00141006  RH  088%=      5-min Rain = 0
KLBW 220945Z 08004KT 01/M01 A2989 RMK A01 T00111008  RH  088%=      5-min Rain = 0
KLBW 220950Z 08005KT 01/M01 A2989 RMK A01 T00101008  RH  089%=      5-min Rain = 0
KLBW 220955Z 08004KT 01/M01 A2989 RMK A01 T00111005  RH  090%=      5-min Rain = 0
KLBW 221000Z 08004KT 01/M01 A2989 RMK A01 T00101005  RH  090%=      5-min Rain = 0
KLBW 221005Z 08004KT 01/M00 A2988 RMK A01 T00101004  RH  091%=      5-min Rain = 0
KLBW 221010Z 07004KT 01/M00 A2988 RMK A01 T00091004  RH  092%=      5-min Rain = 0
KLBW 221015Z 06004KT 01/M01 A2988 RMK A01 T00081005  RH  092%=      5-min Rain = 0
KLBW 221020Z 07005KT 01/M00 A2988 RMK A01 T00081004  RH  092%=      5-min Rain = 0
KLBW 221025Z 07005KT 01/M00 A2988 RMK A01 T00091003  RH  093%=      5-min Rain = 0
KLBW 221030Z 07005KT 01/M00 A2988 RMK A01 T00091002  RH  094%=      5-min Rain = 0
KLBW 221035Z 07004KT 01/M00 A2989 RMK A01 T00091001  RH  094%=      5-min Rain = 0
KLBW 221040Z 08004KT 01/M00 A2989 RMK A01 T00081001  RH  095%=      5-min Rain = 0
KLBW 221045Z 07005KT 01/M00 A2989 RMK A01 T00071002  RH  095%=      5-min Rain = 0
KLBW 221050Z 07004KT 01/M00 A2989 RMK A01 T00061002  RH  096%=      5-min Rain = 0
KLBW 221055Z 06005KT 01/M00 A2988 RMK A01 T00061001  RH  096%=      5-min Rain = 0
KLBW 221100Z 06005KT 01/M00 A2988 RMK A01 T00051003  RH  096%=      5-min Rain = 0
KLBW 221105Z 05006KT 00/M00 A2988 RMK A01 T00041003  RH  096%=      5-min Rain = 0
KLBW 221110Z 04004KT 00/M00 A2989 RMK A01 T00041003  RH  096%=      5-min Rain = 0
KLBW 221115Z 05003KT 01/M00 A2989 RMK A01 T00061001  RH  096%=      5-min Rain = 0
KLBW 221120Z 06004KT 01/M00 A299 RMK A01 T00061001  RH  096%=      5-min Rain = 0
KLBW 221125Z 06005KT 01/M00 A299 RMK A01 T00061001  RH  096%=      5-min Rain = 0
KLBW 221130Z 05005KT 01/M00 A299 RMK A01 T00061001  RH  097%=      5-min Rain = 0
KLBW 221135Z 05006KT 01/00 A299 RMK A01 T00060000  RH  097%=      5-min Rain = 0
KLBW 221140Z 07005KT 01/00 A2991 RMK A01 T00050001  RH  098%=      5-min Rain = 0
KLBW 221145Z 09007KT 00/00 A299 RMK A01 T00040002  RH  100%=      5-min Rain = 0
KLBW 221150Z 09008KT 00/00 A299 RMK A01 T00030001  RH  100%=      5-min Rain = 0
KLBW 221155Z 09007KT 00/00 A299 RMK A01 T00030001  RH  100%=      5-min Rain = 0
KLBW 221200Z 10007KT 00/00 A299 RMK A01 T00040002  RH  100%=      5-min Rain = 0
KLBW 221205Z 10008KT 01/00 A299 RMK A01 T00050003  RH  100%=      5-min Rain = 0
KLBW 221210Z 10007KT 01/01 A2991 RMK A01 T00070005  RH  100%=      5-min Rain = 0
KLBW 221215Z 10007G12KT 01/01 A2991 RMK A01 T00090007  RH  100%=      5-min Rain = 0
KLBW 221220Z 10007KT 01/01 A2991 RMK A01 T00100008  RH  100%=      5-min Rain = 0
KLBW 221225Z 10007KT 01/01 A2991 RMK A01 T00110009  RH  100%=      5-min Rain = 0
KLBW 221230Z 10006KT 01/01 A2991 RMK A01 T00120010  RH  100%=      5-min Rain = 0
KLBW 221235Z 11005KT 01/01 A2991 RMK A01 T00130011  RH  100%=      5-min Rain = 0
KLBW 221240Z 10005KT 02/01 A2991 RMK A01 T00150013  RH  100%=      5-min Rain = 0
KLBW 221245Z 10005KT 02/01 A2991 RMK A01 T00160014  RH  100%=      5-min Rain = 0
KLBW 221250Z 10004KT 02/02 A2991 RMK A01 T00170015  RH  100%=      5-min Rain = 0
KLBW 221255Z 10005KT 02/02 A2991 RMK A01 T00190017  RH  100%=      5-min Rain = 0
KLBW 221300Z 11006KT 02/02 A2991 RMK A01 T00200018  RH  100%=      5-min Rain = 0
KLBW 221305Z 11005G10KT 02/02 A2991 RMK A01 T00220020  RH  100%=      5-min Rain = 0
KLBW 221310Z 11007KT 03/02 A2991 RMK A01 T00250022  RH  100%=      5-min Rain = 0
KLBW 221315Z 11007KT 03/02 A2991 RMK A01 T00260024  RH  100%=      5-min Rain = 0
KLBW 221320Z 11008G13KT 03/03 A2991 RMK A01 T00270025  RH  100%=      5-min Rain = 0
KLBW 221325Z 11007KT 03/03 A2991 RMK A01 T00290026  RH  100%=      5-min Rain = 0
KLBW 221330Z 11009KT 03/03 A2991 RMK A01 T00300028  RH  100%=      5-min Rain = 0
KLBW 221335Z 12007KT 03/03 A2991 RMK A01 T00320029  RH  100%=      5-min Rain = 0
KLBW 221340Z 12007G12KT 03/03 A2992 RMK A01 T00330030  RH  100%=      5-min Rain = 0
KLBW 221345Z 11006KT 03/03 A2992 RMK A01 T00340031  RH  100%=      5-min Rain = 0
KLBW 221350Z 11006KT 03/03 A2992 RMK A01 T00340032  RH  100%=      5-min Rain = 0
KLBW 221355Z 12006KT 04/03 A2992 RMK A01 T00350033  RH  100%=      5-min Rain = 0
KLBW 221400Z 12006KT 04/03 A2992 RMK A01 T00360033  RH  100%=      5-min Rain = 0
KLBW 221405Z 12006KT 04/03 A2992 RMK A01 T00370034  RH  100%=      5-min Rain = 0
KLBW 221410Z 12008G13KT 04/04 A2992 RMK A01 T00380035  RH  100%=      5-min Rain = 0
KLBW 221415Z 12009KT 04/04 A2992 RMK A01 T00380036  RH  100%=      5-min Rain = 0
KLBW 221420Z 12009KT 04/04 A2993 RMK A01 T00380036  RH  100%=      5-min Rain = 0
KLBW 221425Z 12009KT 04/04 A2993 RMK A01 T00380036  RH  100%=      5-min Rain = 0
KLBW 221430Z 12007KT 04/04 A2993 RMK A01 T00390036  RH  100%=      5-min Rain = 0
KLBW 221435Z 11006KT 04/04 A2994 RMK A01 T00400037  RH  100%=      5-min Rain = 0
KLBW 221440Z 11007G12KT 04/04 A2994 RMK A01 T00390037  RH  100%=      5-min Rain = 0
KLBW 221445Z 11008KT 04/04 A2994 RMK A01 T00390036  RH  100%=      5-min Rain = 0
KLBW 221450Z 11008KT 04/04 A2994 RMK A01 T00380036  RH  100%=      5-min Rain = 0
KLBW 221455Z 11008KT 04/04 A2994 RMK A01 T00380036  RH  100%=      5-min Rain = 0
KLBW 221500Z 12007KT 04/04 A2994 RMK A01 T00400037  RH  100%=      5-min Rain = 0
KLBW 221505Z 12008KT 04/04 A2995 RMK A01 T00400038  RH  100%=      5-min Rain = 0
KLBW 221510Z 13009KT 04/04 A2995 RMK A01 T00400037  RH  100%=      5-min Rain = 0
KLBW 221515Z 13010KT 04/04 A2995 RMK A01 T00400037  RH  100%=      5-min Rain = 0
KLBW 221520Z 12009G14KT 04/04 A2995 RMK A01 T00390037  RH  100%=      5-min Rain = 0
KLBW 221525Z 12008KT 04/04 A2996 RMK A01 T00400037  RH  100%=      5-min Rain = 0
KLBW 221530Z 12009G15KT 04/04 A2995 RMK A01 T00410038  RH  100%=      5-min Rain = 0
KLBW 221535Z 13010KT 04/04 A2995 RMK A01 T00410038  RH  100%=      5-min Rain = 0
KLBW 221540Z 13009KT 04/04 A2996 RMK A01 T00420039  RH  100%=      5-min Rain = 0
KLBW 221545Z 13009KT 04/04 A2996 RMK A01 T00430040  RH  100%=      5-min Rain = 0
KLBW 221550Z 13008KT 04/04 A2996 RMK A01 T00430041  RH  100%=      5-min Rain = 0
KLBW 221555Z 13009KT 04/04 A2996 RMK A01 T00440041  RH  100%=      5-min Rain = 0
KLBW 221600Z 13009KT 04/04 A2996 RMK A01 T00440042  RH  100%=      5-min Rain = 0
KLBW 221605Z 13006KT 05/04 A2996 RMK A01 T00450043  RH  100%=      5-min Rain = 0
KLBW 221610Z 13005KT 05/04 A2996 RMK A01 T00470044  RH  100%=      5-min Rain = 0
KLBW 221615Z 13007KT 05/05 A2996 RMK A01 T00480045  RH  100%=      5-min Rain = 0
KLBW 221620Z 13006KT 05/05 A2995 RMK A01 T00500047  RH  100%=      5-min Rain = 0
KLBW 221625Z 13007KT 05/05 A2995 RMK A01 T00510048  RH  100%=      5-min Rain = 0
KLBW 221630Z 13007KT 05/05 A2996 RMK A01 T00510048  RH  100%=      5-min Rain = 0
KLBW 221635Z 12005KT 05/05 A2996 RMK A01 T00500047  RH  100%=      5-min Rain = 0
KLBW 221640Z 12005KT 05/05 A2995 RMK A01 T00510048  RH  100%=      5-min Rain = 0
KLBW 221645Z 12005KT 05/05 A2995 RMK A01 T00540051  RH  100%=      5-min Rain = 0
KLBW 221650Z 14006KT 06/05 A2995 RMK A01 T00560053  RH  100%=      5-min Rain = 0
KLBW 221655Z 13005KT 06/05 A2995 RMK A01 T00570054  RH  100%=      5-min Rain = 0
KLBW 221700Z 14005KT 06/06 A2995 RMK A01 T00600056  RH  100%=      5-min Rain = 0
KLBW 221705Z 12004KT 06/06 A2995 RMK A01 T00630059  RH  100%=      5-min Rain = 0
KLBW 221710Z 11004KT 06/06 A2995 RMK A01 T00630059  RH  100%=      5-min Rain = 0
KLBW 221715Z 12005KT 06/06 A2995 RMK A01 T00640061  RH  100%=      5-min Rain = 0
KLBW 221720Z 14006KT 07/06 A2994 RMK A01 T00670061  RH  098%=      5-min Rain = 0
KLBW 221725Z 13006KT 07/06 A2994 RMK A01 T00690059  RH  095%=      5-min Rain = 0
KLBW 221730Z 11004KT 07/06 A2994 RMK A01 T00700059  RH  095%=      5-min Rain = 0
KLBW 221735Z 13004KT 07/06 A2994 RMK A01 T00700057  RH  094%=      5-min Rain = 0
KLBW 221740Z 14005KT 07/06 A2994 RMK A01 T00730057  RH  092%=      5-min Rain = 0
KLBW 221745Z 12004KT 08/06 A2994 RMK A01 T00750058  RH  091%=      5-min Rain = 0
KLBW 221750Z 13005KT 08/06 A2994 RMK A01 T00760056  RH  089%=      5-min Rain = 0
KLBW 221755Z 11002KT 08/06 A2993 RMK A01 T00790057  RH  088%=      5-min Rain = 0
KLBW 221800Z 14004KT 08/06 A2993 RMK A01 T00810056  RH  087%=      5-min Rain = 0
KLBW 221805Z 16006KT 08/05 A2993 RMK A01 T00820053  RH  084%=      5-min Rain = 0
KLBW 221810Z 17007KT 08/05 A2992 RMK A01 T00820050  RH  082%=      5-min Rain = 0
KLBW 221815Z 18006KT 09/05 A2992 RMK A01 T00860052  RH  081%=      5-min Rain = 0
KLBW 221820Z 18006G11KT 09/05 A2992 RMK A01 T00890051  RH  079%=      5-min Rain = 0
KLBW 221825Z 18006KT 09/05 A2992 RMK A01 T00930049  RH  075%=      5-min Rain = 0
KLBW 221830Z 18006G11KT 09/05 A2991 RMK A01 T00910048  RH  076%=      5-min Rain = 0
KLBW 221835Z 15005KT 09/05 A2991 RMK A01 T00910049  RH  076%=      5-min Rain = 0
KLBW 221840Z 14004KT 10/05 A2991 RMK A01 T00980050  RH  074%=      5-min Rain = 0
KLBW 221845Z 18004KT 10/05 A299 RMK A01 T00950048  RH  074%=      5-min Rain = 0
KLBW 221850Z 15006KT 09/05 A299 RMK A01 T00940048  RH  074%=      5-min Rain = 0
KLBW 221855Z 16005KT 10/05 A299 RMK A01 T00990048  RH  072%=      5-min Rain = 0
KLBW 221900Z 14004KT 10/05 A2989 RMK A01 T01000048  RH  071%=      5-min Rain = 0
KLBW 221905Z 16007KT 11/05 A2989 RMK A01 T01080049  RH  068%=      5-min Rain = 0
KLBW 221910Z 20004KT 10/05 A2989 RMK A01 T01040045  RH  068%=      5-min Rain = 0
KLBW 221915Z 14005KT 10/05 A2988 RMK A01 T01040046  RH  069%=      5-min Rain = 0
KLBW 221920Z 13005KT 11/05 A2988 RMK A01 T01100048  RH  067%=      5-min Rain = 0
KLBW 221925Z 13005KT 11/05 A2988 RMK A01 T01120047  RH  066%=      5-min Rain = 0
KLBW 221930Z 13004KT 11/05 A2987 RMK A01 T01130046  RH  065%=      5-min Rain = 0
KLBW 221935Z 11004KT 11/05 A2987 RMK A01 T01130046  RH  065%=      5-min Rain = 0
KLBW 221940Z 15003KT 11/05 A2986 RMK A01 T01130045  RH  064%=      5-min Rain = 0
KLBW 221945Z 16003KT 12/05 A2986 RMK A01 T01180047  RH  063%=      5-min Rain = 0
KLBW 221950Z 12003KT 12/05 A2985 RMK A01 T01190046  RH  062%=      5-min Rain = 0
KLBW 221955Z 16005KT 13/05 A2985 RMK A01 T01250046  RH  060%=      5-min Rain = 0
KLBW 222000Z 14005KT 13/05 A2985 RMK A01 T01260045  RH  059%=      5-min Rain = 0
KLBW 222005Z 14004KT 12/04 A2984 RMK A01 T01240044  RH  059%=      5-min Rain = 0
KLBW 222010Z 11005KT 13/05 A2984 RMK A01 T01310047  RH  058%=      5-min Rain = 0
KLBW 222015Z 12006KT 13/04 A2984 RMK A01 T01270044  RH  058%=      5-min Rain = 0
KLBW 222020Z 14005KT 13/04 A2983 RMK A01 T01300042  RH  056%=      5-min Rain = 0
KLBW 222025Z 14004KT 13/04 A2983 RMK A01 T01330041  RH  055%=      5-min Rain = 0
KLBW 222030Z 14005KT 14/04 A2983 RMK A01 T01370040  RH  053%=      5-min Rain = 0
KLBW 222035Z 13005G10KT 13/04 A2983 RMK A01 T01320041  RH  055%=      5-min Rain = 0
KLBW 222040Z 13007KT 14/04 A2983 RMK A01 T01360041  RH  053%=      5-min Rain = 0
KLBW 222045Z 11005KT 13/04 A2982 RMK A01 T01340041  RH  055%=      5-min Rain = 0
KLBW 222050Z 11007KT 14/04 A2982 RMK A01 T01380042  RH  053%=      5-min Rain = 0
KLBW 222055Z 11007KT 14/04 A2982 RMK A01 T01360041  RH  054%=      5-min Rain = 0
KLBW 222100Z 11007KT 14/04 A2982 RMK A01 T01370042  RH  054%=      5-min Rain = 0
KLBW 222105Z 12008KT 14/04 A2982 RMK A01 T01370044  RH  054%=      5-min Rain = 0
KLBW 222110Z 12007G13KT 14/04 A2981 RMK A01 T01410043  RH  053%=      5-min Rain = 0
KLBW 222115Z 11009G14KT 14/04 A2981 RMK A01 T01360043  RH  055%=      5-min Rain = 0
KLBW 222120Z 12008KT 14/05 A2981 RMK A01 T01410045  RH  053%=      5-min Rain = 0
KLBW 222125Z 12007G14KT 14/05 A2981 RMK A01 T01430045  RH  053%=      5-min Rain = 0
KLBW 222130Z 10010KT 14/05 A2981 RMK A01 T01360046  RH  056%=      5-min Rain = 0
KLBW 222135Z 10010KT 13/05 A2981 RMK A01 T01300049  RH  059%=      5-min Rain = 0
KLBW 222140Z 12011KT 13/05 A2981 RMK A01 T01280049  RH  060%=      5-min Rain = 0
KLBW 222145Z 10010KT 13/05 A2981 RMK A01 T01280050  RH  060%=      5-min Rain = 0
KLBW 222150Z 10011KT 13/05 A2981 RMK A01 T01250048  RH  061%=      5-min Rain = 0
KLBW 222155Z 10011KT 12/05 A2981 RMK A01 T01210048  RH  062%=      5-min Rain = 0
KLBW 222200Z 10011G16KT 12/05 A2981 RMK A01 T01180047  RH  063%=      5-min Rain = 0
KLBW 222205Z 10012KT 11/05 A2981 RMK A01 T01140047  RH  064%=      5-min Rain = 0
KLBW 222210Z 10011G16KT 12/05 A2981 RMK A01 T01160047  RH  064%=      5-min Rain = 0
KLBW 222215Z 10013KT 11/05 A2981 RMK A01 T01110046  RH  066%=      5-min Rain = 0
KLBW 222220Z 10012G17KT 11/05 A2981 RMK A01 T01110046  RH  066%=      5-min Rain = 0
KLBW 222225Z 12010KT 11/05 A2981 RMK A01 T01130045  RH  064%=      5-min Rain = 0
KLBW 222230Z 11011KT 11/05 A2981 RMK A01 T01100045  RH  066%=      5-min Rain = 0
KLBW 222235Z 11012G17KT 11/05 A298 RMK A01 T01080045  RH  066%=      5-min Rain = 0
KLBW 222240Z 10011G16KT 10/05 A298 RMK A01 T01020045  RH  069%=      5-min Rain = 0
KLBW 222245Z 12011KT 10/05 A298 RMK A01 T01030045  RH  068%=      5-min Rain = 0
KLBW 222250Z 11012KT 10/04 A298 RMK A01 T00980043  RH  070%=      5-min Rain = 0
KLBW 222255Z 11012G17KT 10/04 A2981 RMK A01 T00970044  RH  071%=      5-min Rain = 0
KLBW 222300Z 10012KT 09/05 A2981 RMK A01 T00940046  RH  073%=      5-min Rain = 0
KLBW 222305Z 11012KT 09/05 A2981 RMK A01 T00920045  RH  074%=      5-min Rain = 0
KLBW 222310Z 12010G15KT 09/05 A2981 RMK A01 T00920046  RH  075%=      5-min Rain = 0
KLBW 222315Z 11011KT 09/05 A298 RMK A01 T00900047  RH  076%=      5-min Rain = 0
KLBW 222320Z 12009G14KT 09/05 A298 RMK A01 T00920048  RH  075%=      5-min Rain = 0
KLBW 222325Z 11009KT 09/05 A298 RMK A01 T00940048  RH  074%=      5-min Rain = 0
KLBW 222330Z 12009KT 10/05 A298 RMK A01 T00950047  RH  074%=      5-min Rain = 0
KLBW 222335Z 12007KT 10/05 A298 RMK A01 T00960048  RH  074%=      5-min Rain = 0
KLBW 222340Z 11007KT 10/05 A298 RMK A01 T00950049  RH  075%=      5-min Rain = 0
KLBW 222345Z 11008KT 09/05 A298 RMK A01 T00930048  RH  075%=      5-min Rain = 0
KLBW 222350Z 10008KT 09/05 A298 RMK A01 T00900047  RH  076%=      5-min Rain = 0
KLBW 222355Z 08009KT 09/05 A298 RMK A01 T00880048  RH  078%=      5-min Rain = 0
KLBW 230000Z 09008KT 09/05 A298 RMK A01 T00860049  RH  079%=      5-min Rain = 0
KLBW 230005Z 09009KT 08/05 A2979 RMK A01 T00840049  RH  081%=      5-min Rain = 0
KLBW 230010Z 10008KT 08/05 A2979 RMK A01 T00830049  RH  081%=      5-min Rain = 0
KLBW 230015Z 09008KT 08/05 A2979 RMK A01 T00820050  RH  082%=      5-min Rain = 0
KLBW 230020Z 09008KT 08/05 A2979 RMK A01 T00800050  RH  083%=      5-min Rain = 0
KLBW 230025Z 10009G14KT 08/05 A2979 RMK A01 T00780049  RH  083%=      5-min Rain = 0
KLBW 230030Z 09009G14KT 08/05 A2978 RMK A01 T00760049  RH  085%=      5-min Rain = 0
KLBW 230035Z 09009KT 07/05 A2978 RMK A01 T00740050  RH  086%=      5-min Rain = 0
KLBW 230040Z 09010G15KT 07/05 A2978 RMK A01 T00740051  RH  087%=      5-min Rain = 0
KLBW 230045Z 10010KT 07/05 A2979 RMK A01 T00720051  RH  088%=      5-min Rain = 0
KLBW 230050Z 09010G15KT 07/05 A2978 RMK A01 T00720051  RH  088%=      5-min Rain = 0
KLBW 230055Z 10009KT 07/05 A2978 RMK A01 T00710051  RH  089%=      5-min Rain = 0
KLBW 230100Z 09010G15KT 07/05 A2978 RMK A01 T00710052  RH  090%=      5-min Rain = 0
KLBW 230105Z 10010KT 07/05 A2978 RMK A01 T00710054  RH  091%=      5-min Rain = 0
KLBW 230110Z 09009KT 07/06 A2978 RMK A01 T00720056  RH  091%=      5-min Rain = 0
KLBW 230115Z 10012KT 07/06 A2978 RMK A01 T00720057  RH  092%=      5-min Rain = 0
KLBW 230120Z 09012G18KT 07/06 A2977 RMK A01 T00720060  RH  094%=      5-min Rain = 0
KLBW 230125Z 09010G16KT 07/06 A2977 RMK A01 T00720062  RH  095%=      5-min Rain = 0
KLBW 230130Z 09011G16KT 07/06 A2977 RMK A01 T00720063  RH  096%=      5-min Rain = 0
KLBW 230135Z 10011KT 07/06 A2977 RMK A01 T00700064  RH  098%=      5-min Rain = 0
KLBW 230140Z 10011KT 07/07 A2977 RMK A01 T00710067  RH  100%=      5-min Rain = 0
KLBW 230145Z 10013KT 07/07 A2976 RMK A01 T00710066  RH  099%=      5-min Rain = 0
KLBW 230150Z 10012G18KT 07/07 A2976 RMK A01 T00710066  RH  099%=      5-min Rain = 0
KLBW 230155Z 10013G20KT 07/07 A2976 RMK A01 T00700065  RH  099%=      5-min Rain = 0
KLBW 230200Z 10014KT 07/07 A2976 RMK A01 T00690065  RH  100%=      5-min Rain = 0
KLBW 230205Z 10015G20KT 07/07 A2976 RMK A01 T00680065  RH  100%=      5-min Rain = 0
KLBW 230210Z 10014G21KT 07/06 A2976 RMK A01 T00670064  RH  100%=      5-min Rain = 0
KLBW 230215Z 11015G21KT 07/06 A2976 RMK A01 T00660062  RH  100%=      5-min Rain = 0
KLBW 230220Z 10015G21KT 06/06 A2977 RMK A01 T00640061  RH  100%=      5-min Rain = 0
KLBW 230225Z 11016G21KT 06/06 A2976 RMK A01 T00640060  RH  100%=      5-min Rain = 0
KLBW 230230Z 11016G23KT 06/06 A2975 RMK A01 T00630060  RH  100%=      5-min Rain = 0
KLBW 230235Z 11014G21KT 06/06 A2975 RMK A01 T00630060  RH  100%=      5-min Rain = 0
KLBW 230240Z 10012G17KT 06/06 A2974 RMK A01 T00630060  RH  100%=      5-min Rain = 0
KLBW 230245Z 10014G20KT 06/06 A2974 RMK A01 T00630060  RH  100%=      5-min Rain = 0
KLBW 230250Z 10014G21KT 06/06 A2974 RMK A01 T00630060  RH  100%=      5-min Rain = 0
KLBW 230255Z 10013G21KT 06/06 A2974 RMK A01 T00630060  RH  100%=      5-min Rain = 0
KLBW 230300Z 10014G20KT 06/06 A2974 RMK A01 T00630059  RH  100%=      5-min Rain = 0
KLBW 230305Z 10014G21KT 06/06 A2974 RMK A01 T00630059  RH  100%=      5-min Rain = 0
KLBW 230310Z 10013G18KT 06/06 A2975 RMK A01 T00630060  RH  100%=      5-min Rain = 0
KLBW 230315Z 10011KT 06/06 A2975 RMK A01 T00640060  RH  100%=      5-min Rain = 0
KLBW 230320Z 10011G17KT 06/06 A2975 RMK A01 T00640061  RH  100%=      5-min Rain = 0
KLBW 230325Z 10014G21KT 06/06 A2975 RMK A01 T00640061  RH  100%=      5-min Rain = 0
KLBW 230330Z 10013G20KT 06/06 A2975 RMK A01 T00640061  RH  100%=      5-min Rain = 0
KLBW 230335Z 10013G18KT 06/06 A2975 RMK A01 T00640061  RH  100%=      5-min Rain = 0
KLBW 230340Z 10012G19KT 06/06 A2975 RMK A01 T00640061  RH  100%=      5-min Rain = 0
KLBW 230345Z 10010G15KT 07/06 A2975 RMK A01 T00650061  RH  100%=      5-min Rain = 0
KLBW 230350Z 10013G19KT 07/06 A2974 RMK A01 T00650061  RH  100%=      5-min Rain = 0
KLBW 230355Z 09012G17KT 07/06 A2974 RMK A01 T00650061  RH  100%=      5-min Rain = 0
KLBW 230400Z 09010G18KT 07/06 A2974 RMK A01 T00650061  RH  100%=      5-min Rain = 0
KLBW 230405Z 09010KT 07/06 A2974 RMK A01 T00650061  RH  100%=      5-min Rain = 0
KLBW 230410Z 10009KT 07/06 A2975 RMK A01 T00650061  RH  100%=      5-min Rain = 0
KLBW 230415Z 10008KT 07/06 A2976 RMK A01 T00650062  RH  100%=      5-min Rain = 0
KLBW 230420Z 08006KT 07/06 A2975 RMK A01 T00650062  RH  100%=      5-min Rain = 0
KLBW 230425Z 09006KT 07/06 A2976 RMK A01 T00650062  RH  100%=      5-min Rain = 0
KLBW 230430Z 08005KT 07/06 A2976 RMK A01 T00660062  RH  100%=      5-min Rain = 0
KLBW 230435Z 09006KT 07/06 A2976 RMK A01 T00650062  RH  100%=      5-min Rain = 0
KLBW 230440Z 08008KT 07/06 A2975 RMK A01 T00650062  RH  100%=      5-min Rain = 0
KLBW 230445Z 08006KT 07/06 A2975 RMK A01 T00650062  RH  100%=      5-min Rain = 0
KLBW 230450Z 09003KT 07/06 A2977 RMK A01 T00660062  RH  100%=      5-min Rain = 0
KLBW 230455Z 09005KT 07/06 A2977 RMK A01 T00660062  RH  100%=      5-min Rain = 0
KLBW 230500Z 06006KT 07/06 A2975 RMK A01 T00660063  RH  100%=      5-min Rain = 0
KLBW 230505Z 10006KT 07/06 A2976 RMK A01 T00670063  RH  100%=      5-min Rain = 0
KLBW 230510Z 07007KT 07/06 A2974 RMK A01 T00670063  RH  100%=      5-min Rain = 0
KLBW 230515Z 08010KT 07/06 A2973 RMK A01 T00660063  RH  100%=      5-min Rain = 0
KLBW 230520Z 08011KT 07/06 A2972 RMK A01 T00670063  RH  100%=      5-min Rain = 0
KLBW 230525Z 11011KT 07/06 A2974 RMK A01 T00670064  RH  100%=      5-min Rain = 0
KLBW 230530Z 10012G17KT 07/06 A2971 RMK A01 T00670064  RH  100%=      5-min Rain = 0
KLBW 230535Z 11013G20KT 07/06 A2971 RMK A01 T00670064  RH  100%=      5-min Rain = 0
KLBW 230540Z 11012G18KT 07/06 A297 RMK A01 T00670064  RH  100%=      5-min Rain = 0
KLBW 230545Z 12011G17KT 07/06 A2971 RMK A01 T00670064  RH  100%=      5-min Rain = 0
KLBW 230550Z 11010KT 07/06 A2971 RMK A01 T00670064  RH  100%=      5-min Rain = 0
KLBW 230555Z 12010KT 07/06 A2971 RMK A01 T00670064  RH  100%=      5-min Rain = 0

Page generated in 0.0129 seconds.